Terminal Aerodrome Forecast
Issued by NWS

Home | Current Version | Previous Version | Graphics & Text | Print | Product List | Glossary On
Versions: 1 2 3 4 5 6 7 8 9 10 11 12 13 14 15 16 17
000
FTUS43 KGRB 202300
TAFRHI
TAF
KRHI 202320Z 2100/2124 VRB03KT P6SM SCT070
     FM210700 VRB03KT 4SM BR SCT003 SCT100
     FM210900 VRB02KT 1 1/2SM BR SCT003 SCT100
      TEMPO 2109/2113 1/2SM FG VV003
     FM211400 23004KT 6SM HZ SCT040 SCT100
     FM211600 26006KT P6SM SCT040 BKN070 PROB30 2116/2119 -SHRA
      BKN040
     FM211900 30010G17KT P6SM SCT040 SCT090=

USA.gov is the U.S. government's official web portal to all federal, state and local government web resources and services.